createdAt,value
2023-02-19T00:02:06.389Z,6.490699466973243
2023-02-19T00:09:07.739Z,6.5753442464464875
2023-02-19T00:18:02.527Z,6.505753553511706
2023-02-19T00:24:35.039Z,6.348741246864549
2023-02-19T00:31:06.633Z,6.358988294314382
2023-02-19T00:37:44.402Z,6.133803433319398
2023-02-19T00:53:17.511Z,6.092988346571906
2023-02-19T00:59:59.719Z,6.116020850752507
2023-02-19T01:06:30.081Z,5.974056751672241
2023-02-19T01:13:03.089Z,5.978060984531772
2023-02-19T01:21:16.774Z,5.908704144021739
2023-02-19T01:27:53.065Z,5.9496779630016725
2023-02-19T01:37:14.531Z,5.917955685618729
2023-02-19T01:48:43.434Z,5.754787442516721
2023-02-19T01:56:22.084Z,5.772058554556856
2023-02-19T02:03:14.385Z,5.716552571070235
2023-02-19T02:10:01.426Z,5.731387829222408
2023-02-19T02:18:04.209Z,5.761238633988294
2023-02-19T02:25:11.852Z,5.704590823578595
2023-02-19T02:34:56.182Z,5.514426343018394
2023-02-19T02:41:31.137Z,5.5590242213628756
2023-02-19T02:48:02.751Z,5.502226170568562
2023-02-19T02:54:35.959Z,5.504355664715719
2023-02-19T03:01:13.325Z,5.41952014527592
2023-02-19T03:07:45.757Z,5.3582586486204
2023-02-19T03:14:16.294Z,5.266780544523412
2023-02-19T03:20:54.463Z,5.28816693666388
2023-02-19T03:27:24.420Z,5.278701139214047
2023-02-19T03:33:54.678Z,5.106136993102006
2023-02-19T03:40:23.929Z,5.058164585075251
2023-02-19T03:46:56.771Z,4.988802518812709
2023-02-19T03:55:11.783Z,4.912417041178929
2023-02-19T04:02:17.495Z,4.942627769648829
2023-02-19T04:10:25.434Z,5.019484218227425
2023-02-19T04:17:09.200Z,4.941175663670569
2023-02-19T04:23:59.764Z,5.027296718227425
2023-02-19T04:30:35.262Z,5.025668896321071
2023-02-19T04:37:07.552Z,4.885916596989966
2023-02-19T04:52:03.786Z,4.9922502090301
2023-02-19T04:59:16.624Z,5.011566549958194
2023-02-19T05:09:23.418Z,4.9650397157190636
2023-02-19T05:17:28.958Z,4.990659620610368
2023-02-19T05:26:04.137Z,5.002859793060201
2023-02-19T05:32:41.946Z,4.946347852215719
2023-02-19T05:39:11.114Z,4.958931464255853
2023-02-19T05:45:49.266Z,5.029923312081939
2023-02-19T05:52:28.510Z,4.968647444607024
2023-02-19T06:05:57.577Z,4.8725112353678925
2023-02-19T06:16:43.185Z,4.863543844063545
2023-02-19T06:27:54.424Z,4.667437029682273
2023-02-19T06:34:26.065Z,4.669534516095317
2023-02-19T06:41:13.263Z,4.774617866847826
2023-02-19T06:50:47.989Z,4.805605272784281
2023-02-19T06:57:50.225Z,4.828305941680602
2023-02-19T07:06:02.798Z,4.8026723191889635
2023-02-19T07:12:50.151Z,4.729959892349498
2023-02-19T07:19:33.431Z,4.642377586747492
2023-02-19T07:30:18.854Z,4.664102346362877
2023-02-19T07:36:54.830Z,4.666839987458195
2023-02-19T07:43:39.003Z,4.704219141931438
2023-02-19T07:53:50.099Z,4.905783601588628
2023-02-19T08:07:34.440Z,5.361473792851171
2023-02-19T08:14:51.136Z,5.28505304138796
2023-02-19T08:22:03.304Z,5.429452341137123
2023-02-19T08:32:48.970Z,5.6578124999999995
2023-02-19T08:47:39.590Z,5.934152905518395
2023-02-19T08:54:21.167Z,6.265734740802676
2023-02-19T09:01:10.913Z,6.453315086747492
2023-02-19T09:08:30.611Z,6.405969115802676
2023-02-19T09:30:08.280Z,6.9451981866638794
2023-02-19T09:37:32.515Z,7.08864052048495
2023-02-19T09:44:12.328Z,7.47535012541806
2023-02-19T09:50:47.916Z,7.2783268446906355
2023-02-19T10:05:22.663Z,7.705193091555184
2023-02-19T10:18:25.002Z,7.811133465719064
2023-02-19T10:25:20.495Z,7.33251201923077
2023-02-19T10:38:23.011Z,8.115306882316053
2023-02-19T10:44:59.250Z,8.005055262332775
2023-02-19T10:51:37.903Z,7.964685670986622
2023-02-19T10:58:29.484Z,8.329916126672241
2023-02-19T11:05:16.460Z,8.472323108277592
2023-02-19T11:12:49.807Z,8.61163383152174
2023-02-19T11:24:59.520Z,8.903650841346154
2023-02-19T11:31:38.350Z,8.888245322951507
2023-02-19T11:38:17.437Z,8.841167171822743
2023-02-19T11:47:35.897Z,8.927217678720737
2023-02-19T11:55:15.751Z,8.661045281145485
2023-02-19T12:01:51.771Z,8.399953621446489
2023-02-19T12:08:29.708Z,8.625237118520065
2023-02-19T12:15:07.280Z,8.59050546091137
2023-02-19T12:27:58.642Z,8.516634876672242
2023-02-19T12:37:46.338Z,8.84914493624582
2023-02-19T12:44:26.144Z,9.020562029682273
2023-02-19T12:53:43.004Z,9.36421339360368
2023-02-19T13:08:12.247Z,9.113786841555184
2023-02-19T13:15:10.787Z,9.245408523202341
2023-02-19T13:25:36.433Z,9.029556856187291
2023-02-19T13:32:21.898Z,9.008876593854517
2023-02-19T13:45:58.138Z,9.183163931856187
2023-02-19T13:54:27.514Z,9.068660508988295
2023-02-19T14:04:04.880Z,8.812880173494984
2023-02-19T14:11:44.256Z,8.554078699832775
2023-02-19T14:18:32.886Z,8.578153741638797
2023-02-19T14:25:12.218Z,8.407945756688964
2023-02-19T14:33:20.335Z,8.33875287416388
2023-02-19T14:44:31.864Z,8.209010503762542
2023-02-19T14:51:28.103Z,8.0002508361204
2023-02-19T15:00:14.584Z,8.009327315008361
2023-02-19T15:07:01.144Z,8.2116704117893
2023-02-19T15:13:50.677Z,8.253999660326086
2023-02-19T15:20:48.262Z,8.273167067307693
2023-02-19T15:27:53.784Z,8.245926525919732
2023-02-19T15:34:37.361Z,8.267998144857858
2023-02-19T15:41:29.301Z,8.078683502299333
2023-02-19T15:59:51.577Z,7.867932169732441
2023-02-19T16:08:57.740Z,7.620057744565217
2023-02-19T16:33:40.372Z,7.437381767349498
2023-02-19T16:49:38.514Z,7.127045228887959
2023-02-19T16:56:37.895Z,7.02145693979933
2023-02-19T17:14:00.361Z,6.706975726379599
2023-02-19T17:20:33.486Z,6.689235603051839
2023-02-19T17:27:18.158Z,6.68276285535117
2023-02-19T17:34:26.555Z,6.51984610158863
2023-02-19T17:42:02.198Z,6.447325721153846
2023-02-19T18:02:50.612Z,6.441093358068563
2023-02-19T18:10:42.598Z,6.414702654682274
2023-02-19T18:17:26.027Z,6.483152827132107
2023-02-19T18:23:58.945Z,6.523423782399666
2023-02-19T18:30:31.332Z,6.512537233486622
2023-02-19T18:37:39.928Z,6.531197089255854
2023-02-19T18:44:21.803Z,6.5033889005016725
2023-02-19T18:50:57.188Z,6.544484871446489
2023-02-19T18:57:50.526Z,6.562463419732441
2023-02-19T19:04:44.999Z,6.529886078595317
2023-02-19T19:11:31.328Z,6.445772366220736
2023-02-19T19:21:16.500Z,6.436043321488294
2023-02-19T19:31:49.465Z,6.437943535744147
2023-02-19T19:44:22.848Z,6.315508727006689
2023-02-19T19:51:04.788Z,6.312194946697325
2023-02-19T19:57:54.549Z,6.316036528010033
2023-02-19T20:12:50.562Z,6.173510660535117
2023-02-19T20:19:21.923Z,6.135013848244147
2023-02-19T20:26:39.950Z,6.145865123327759
2023-02-19T20:34:21.457Z,6.152554739757526
2023-02-19T20:43:56.434Z,6.174158653846154
2023-02-19T20:50:27.319Z,6.161673024665552
2023-02-19T21:02:02.770Z,6.0192719220317725
2023-02-19T21:08:30.146Z,5.874624399038462
2023-02-19T21:29:25.805Z,5.622059860994983
2023-02-19T21:36:02.355Z,5.6895491482023415
2023-02-19T21:46:04.756Z,5.65487366743311
2023-02-19T21:58:02.702Z,5.639121289715719
2023-02-19T22:04:34.935Z,5.727050454640468
2023-02-19T22:11:05.549Z,5.763839752299331
2023-02-19T22:17:46.237Z,5.812309260033445
2023-02-19T22:31:37.358Z,5.919419549540135
2023-02-19T22:38:25.805Z,5.968326714046823
2023-02-19T22:45:48.421Z,5.9775325303093645
2023-02-19T22:54:00.835Z,5.9913990645903015
2023-02-19T23:05:35.155Z,6.006706600125418
2023-02-19T23:18:28.442Z,6.003308554556857
2023-02-19T23:24:55.694Z,6.009149639423077
2023-02-19T23:32:02.018Z,6.049118807483278
2023-02-19T23:39:19.633Z,6.020675689799331
2023-02-19T23:47:29.231Z,6.0129415760869565
2023-02-19T23:55:47.219Z,6.02797018708194
